Aywaille, Belgium
Current Conditions -  °F | °C
As of 10:20 PM on Saturday 20 Dec 2014 (Local Time) from EBLG Reporting Station
Few Clouds Few Clouds  
Wind Chill: 32°   Ceiling: Unl
Heat Index: 39°   Visibility: 6mi
Dew Point: 37°   Wind: 10mph
Humidity: 93%   Direction: 260°W
Pressure: 30.36"   Gusts: NA
Location:  50.46°N, 5.71°E
Report Text: EBLG 202120Z 26009KT 9999 FEW025 04/03 Q1028 NOSIG
Loading
Personal Weather Stations






























Interactive Weather Map New forecast layout! Learn more

10-Day Weather Forecast

Advertisements
Track Severe Weather on mobile